Time,TemperatureF,DewpointF,PressureIn,WindDirection,WindDirectionDegrees,WindSpeedMPH,WindSpeedGustMPH,Humidity,HourlyPrecipIn,Conditions,Clouds,dailyrainin,SoftwareType,DateUTC
2013-06-18 00:10:00,61.9,56.0,29.90,WSW,239,4.0,12.0,82,0.00,,,0.00,weatherlink.com 1.10,2013-06-18 04:10:00,
2013-06-18 00:25:00,61.2,56.0,29.91,WSW,257,7.0,9.0,84,0.00,,,0.00,weatherlink.com 1.10,2013-06-18 04:25:00,
2013-06-18 00:40:00,61.0,57.0,29.91,WSW,253,4.0,10.0,85,0.00,,,0.00,weatherlink.com 1.10,2013-06-18 04:40:00,
2013-06-18 00:55:00,60.5,56.0,29.91,WSW,241,7.0,8.0,86,0.00,,,0.00,weatherlink.com 1.10,2013-06-18 04:55:00,
2013-06-18 01:10:00,60.0,56.0,29.90,SW,235,3.0,9.0,87,0.00,,,0.00,weatherlink.com 1.10,2013-06-18 05:10:00,
2013-06-18 01:25:00,59.7,56.0,29.90,WSW,250,6.0,7.0,88,0.00,,,0.00,weatherlink.com 1.10,2013-06-18 05:25:00,
2013-06-18 01:40:00,59.4,56.0,29.90,West,277,0.0,6.0,89,0.00,,,0.00,weatherlink.com 1.10,2013-06-18 05:40:00,
2013-06-18 01:55:00,59.3,56.0,29.90,WSW,252,0.0,7.0,89,0.00,,,0.00,weatherlink.com 1.10,2013-06-18 05:55:00,
2013-06-18 02:10:00,59.0,56.0,29.90,WSW,238,2.0,6.0,89,0.00,,,0.00,weatherlink.com 1.10,2013-06-18 06:10:00,
2013-06-18 02:25:00,58.9,56.0,29.90,WSW,255,0.0,6.0,89,0.00,,,0.00,weatherlink.com 1.10,2013-06-18 06:25:00,
2013-06-18 02:40:00,58.4,56.0,29.90,West,259,3.0,6.0,90,0.00,,,0.00,weatherlink.com 1.10,2013-06-18 06:40:00,
2013-06-18 02:55:00,58.0,55.0,29.90,WSW,250,0.0,5.0,91,0.00,,,0.00,weatherlink.com 1.10,2013-06-18 06:55:00,
2013-06-18 03:10:00,57.5,56.0,29.89,WSW,242,3.0,5.0,93,0.00,,,0.00,weatherlink.com 1.10,2013-06-18 07:10:00,
2013-06-18 03:25:00,57.6,55.0,29.89,SW,219,4.0,7.0,92,0.00,,,0.00,weatherlink.com 1.10,2013-06-18 07:25:00,
2013-06-18 03:40:00,57.6,55.0,29.89,SW,229,0.0,4.0,90,0.00,,,0.00,weatherlink.com 1.10,2013-06-18 07:40:00,
2013-06-18 03:55:00,57.5,54.0,29.89,WSW,242,1.0,4.0,89,0.00,,,0.00,weatherlink.com 1.10,2013-06-18 07:55:00,
2013-06-18 04:10:00,57.5,54.0,29.90,SW,219,0.0,4.0,89,0.00,,,0.00,weatherlink.com 1.10,2013-06-18 08:10:00,
2013-06-18 04:25:00,57.4,54.0,29.90,WSW,237,0.0,5.0,88,0.00,,,0.00,weatherlink.com 1.10,2013-06-18 08:25:00,
2013-06-18 04:41:00,57.1,53.0,29.90,SW,236,0.0,4.0,87,0.00,,,0.00,weatherlink.com 1.10,2013-06-18 08:41:00,
2013-06-18 04:56:00,56.6,53.0,29.91,SW,229,0.0,6.0,87,0.00,,,0.00,weatherlink.com 1.10,2013-06-18 08:56:00,
2013-06-18 05:11:00,56.2,52.0,29.91,SW,224,0.0,4.0,86,0.00,,,0.00,weatherlink.com 1.10,2013-06-18 09:11:00,
2013-06-18 05:26:00,56.1,52.0,29.91,SW,222,0.0,5.0,86,0.00,,,0.00,weatherlink.com 1.10,2013-06-18 09:26:00,
2013-06-18 05:41:00,56.1,52.0,29.91,SW,219,0.0,4.0,87,0.00,,,0.00,weatherlink.com 1.10,2013-06-18 09:41:00,
2013-06-18 05:56:00,56.2,52.0,29.92,SW,219,1.0,4.0,87,0.00,,,0.00,weatherlink.com 1.10,2013-06-18 09:56:00,
2013-06-18 06:11:00,56.4,52.0,29.92,WSW,242,1.0,3.0,86,0.00,,,0.00,weatherlink.com 1.10,2013-06-18 10:11:00,
2013-06-18 06:26:00,56.6,52.0,29.93,WSW,240,0.0,4.0,85,0.00,,,0.00,weatherlink.com 1.10,2013-06-18 10:26:00,
2013-06-18 06:41:00,57.1,52.0,29.93,SW,235,0.0,3.0,83,0.00,,,0.00,weatherlink.com 1.10,2013-06-18 10:41:00,
2013-06-18 06:56:00,57.0,52.0,29.93,WSW,238,1.0,3.0,84,0.00,,,0.00,weatherlink.com 1.10,2013-06-18 10:56:00,
2013-06-18 07:11:00,56.8,52.0,29.94,SW,232,5.0,5.0,85,0.00,,,0.00,weatherlink.com 1.10,2013-06-18 11:11:00,
2013-06-18 07:26:00,57.4,52.0,29.94,SW,235,0.0,7.0,83,0.00,,,0.00,weatherlink.com 1.10,2013-06-18 11:26:00,
2013-06-18 07:41:00,57.6,53.0,29.94,West,271,0.0,7.0,83,0.00,,,0.00,weatherlink.com 1.10,2013-06-18 11:41:00,
2013-06-18 07:56:00,58.0,52.0,29.94,SW,234,5.0,6.0,81,0.00,,,0.00,weatherlink.com 1.10,2013-06-18 11:56:00,
2013-06-18 08:11:00,58.6,52.0,29.94,SW,227,1.0,6.0,80,0.00,,,0.00,weatherlink.com 1.10,2013-06-18 12:11:00,
2013-06-18 08:26:00,59.0,53.0,29.95,WSW,237,3.0,6.0,79,0.00,,,0.00,weatherlink.com 1.10,2013-06-18 12:26:00,
2013-06-18 08:41:00,59.2,52.0,29.95,West,269,5.0,8.0,77,0.00,,,0.00,weatherlink.com 1.10,2013-06-18 12:41:00,
2013-06-18 08:56:00,59.3,52.0,29.96,SW,216,2.0,8.0,78,0.00,,,0.00,weatherlink.com 1.10,2013-06-18 12:56:00,
2013-06-18 09:11:00,59.1,52.0,29.95,WSW,243,3.0,6.0,77,0.00,,,0.00,weatherlink.com 1.10,2013-06-18 13:11:00,
2013-06-18 09:26:00,58.3,53.0,29.96,SW,223,1.0,5.0,81,0.00,,,0.00,weatherlink.com 1.10,2013-06-18 13:26:00,
2013-06-18 09:41:00,57.5,53.0,29.96,SW,232,0.0,7.0,84,0.00,,,0.00,weatherlink.com 1.10,2013-06-18 13:41:00,
2013-06-18 09:56:00,57.3,53.0,29.96,SSW,198,2.0,2.0,86,0.00,,,0.00,weatherlink.com 1.10,2013-06-18 13:56:00,
2013-06-18 10:11:00,57.3,54.0,29.95,ESE,113,0.0,2.0,88,0.00,,,0.00,weatherlink.com 1.10,2013-06-18 14:11:00,
2013-06-18 10:26:00,57.8,53.0,29.96,ESE,122,0.0,6.0,83,0.00,,,0.00,weatherlink.com 1.10,2013-06-18 14:26:00,
2013-06-18 10:41:00,58.0,53.0,29.96,SW,223,0.0,5.0,82,0.00,,,0.00,weatherlink.com 1.10,2013-06-18 14:41:00,
2013-06-18 10:56:00,57.8,53.0,29.96,SW,223,5.0,5.0,85,0.00,,,0.00,weatherlink.com 1.10,2013-06-18 14:56:00,
2013-06-18 11:11:00,57.9,54.0,29.97,WSW,241,3.0,8.0,86,0.00,,,0.00,weatherlink.com 1.10,2013-06-18 15:11:00,
2013-06-18 11:26:00,57.4,54.0,29.99,SW,232,7.0,13.0,87,0.00,,,0.00,weatherlink.com 1.10,2013-06-18 15:26:00,
2013-06-18 11:41:00,57.3,55.0,29.99,West,268,4.0,14.0,91,0.01,,,0.01,weatherlink.com 1.10,2013-06-18 15:41:00,
2013-06-18 11:56:00,56.6,54.0,30.00,WSW,256,4.0,14.0,89,0.01,,,0.01,weatherlink.com 1.10,2013-06-18 15:56:00,
2013-06-18 12:11:00,55.2,52.0,29.99,WNW,286,0.0,15.0,89,0.01,,,0.01,weatherlink.com 1.10,2013-06-18 16:11:00,
2013-06-18 12:26:00,53.5,52.0,29.99,WNW,288,0.0,8.0,93,0.03,,,0.03,weatherlink.com 1.10,2013-06-18 16:26:00,
2013-06-18 12:41:00,53.4,51.0,29.99,WSW,238,0.0,4.0,92,0.04,,,0.05,weatherlink.com 1.10,2013-06-18 16:41:00,
2013-06-18 12:56:00,55.3,54.0,29.98,WNW,296,0.0,4.0,94,0.04,,,0.05,weatherlink.com 1.10,2013-06-18 16:56:00,
2013-06-18 13:11:00,57.1,55.0,29.97,West,279,0.0,1.0,91,0.04,,,0.05,weatherlink.com 1.10,2013-06-18 17:11:00,
2013-06-18 13:26:00,59.4,56.0,29.97,WNW,282,0.0,0.0,87,0.01,,,0.05,weatherlink.com 1.10,2013-06-18 17:26:00,
2013-06-18 13:41:00,60.1,56.0,29.97,ESE,105,0.0,0.0,85,0.00,,,0.05,weatherlink.com 1.10,2013-06-18 17:41:00,
2013-06-18 13:56:00,58.7,54.0,29.98,ESE,105,0.0,0.0,84,0.00,,,0.05,weatherlink.com 1.10,2013-06-18 17:56:00,
2013-06-18 14:11:00,57.5,53.0,29.97,ESE,105,0.0,0.0,84,0.00,,,0.05,weatherlink.com 1.10,2013-06-18 18:11:00,
2013-06-18 14:26:00,56.9,53.0,29.96,ESE,105,0.0,0.0,88,0.01,,,0.06,weatherlink.com 1.10,2013-06-18 18:26:00,
2013-06-18 14:41:00,57.2,54.0,29.96,ESE,105,0.0,0.0,90,0.01,,,0.06,weatherlink.com 1.10,2013-06-18 18:41:00,
2013-06-18 14:56:00,57.6,54.0,29.96,ESE,105,0.0,0.0,87,0.01,,,0.06,weatherlink.com 1.10,2013-06-18 18:56:00,
2013-06-18 15:11:00,57.8,55.0,29.96,WNW,299,1.0,3.0,90,0.01,,,0.06,weatherlink.com 1.10,2013-06-18 19:11:00,
2013-06-18 15:26:00,57.5,56.0,29.96,WSW,251,3.0,4.0,93,0.00,,,0.06,weatherlink.com 1.10,2013-06-18 19:26:00,
2013-06-18 15:41:00,57.0,55.0,29.96,WSW,244,0.0,4.0,92,0.00,,,0.06,weatherlink.com 1.10,2013-06-18 19:41:00,
2013-06-18 15:56:00,57.0,55.0,29.95,WSW,246,0.0,1.0,92,0.00,,,0.06,weatherlink.com 1.10,2013-06-18 19:56:00,
2013-06-18 16:11:00,57.2,55.0,29.96,WSW,246,0.0,1.0,93,0.00,,,0.06,weatherlink.com 1.10,2013-06-18 20:11:00,
2013-06-18 16:26:00,57.3,55.0,29.95,WSW,246,0.0,0.0,92,0.00,,,0.06,weatherlink.com 1.10,2013-06-18 20:26:00,
2013-06-18 16:41:00,57.2,55.0,29.96,WSW,246,0.0,0.0,93,0.00,,,0.06,weatherlink.com 1.10,2013-06-18 20:41:00,
2013-06-18 16:56:00,57.0,55.0,29.96,WSW,246,0.0,0.0,93,0.00,,,0.06,weatherlink.com 1.10,2013-06-18 20:56:00,
2013-06-18 17:11:00,57.0,55.0,29.96,WSW,246,0.0,1.0,94,0.00,,,0.06,weatherlink.com 1.10,2013-06-18 21:11:00,
2013-06-18 17:26:00,56.8,55.0,29.96,WSW,246,0.0,1.0,93,0.00,,,0.06,weatherlink.com 1.10,2013-06-18 21:26:00,
2013-06-18 17:41:00,56.6,53.0,29.96,WSW,246,0.0,2.0,88,0.00,,,0.06,weatherlink.com 1.10,2013-06-18 21:41:00,
2013-06-18 17:56:00,56.7,53.0,29.96,WSW,246,0.0,2.0,86,0.00,,,0.06,weatherlink.com 1.10,2013-06-18 21:56:00,
2013-06-18 18:11:00,57.0,52.0,29.96,WSW,246,0.0,0.0,82,0.00,,,0.06,weatherlink.com 1.10,2013-06-18 22:11:00,
2013-06-18 18:26:00,57.0,52.0,29.96,WSW,246,0.0,1.0,82,0.00,,,0.06,weatherlink.com 1.10,2013-06-18 22:26:00,
2013-06-18 18:41:00,57.1,52.0,29.96,WSW,246,0.0,0.0,83,0.00,,,0.06,weatherlink.com 1.10,2013-06-18 22:41:00,
2013-06-18 18:56:00,57.1,52.0,29.96,WSW,246,0.0,1.0,83,0.00,,,0.06,weatherlink.com 1.10,2013-06-18 22:56:00,
2013-06-18 19:11:00,57.0,53.0,29.96,WSW,246,0.0,0.0,85,0.00,,,0.06,weatherlink.com 1.10,2013-06-18 23:11:00,
2013-06-18 19:27:00,56.7,53.0,29.96,WSW,246,0.0,0.0,86,0.00,,,0.06,weatherlink.com 1.10,2013-06-18 23:27:00,
2013-06-18 19:42:00,56.4,52.0,29.96,WSW,246,0.0,0.0,86,0.00,,,0.06,weatherlink.com 1.10,2013-06-18 23:42:00,
2013-06-18 19:57:00,56.2,52.0,29.96,WSW,246,0.0,0.0,86,0.00,,,0.06,weatherlink.com 1.10,2013-06-18 23:57:00,
2013-06-18 20:12:00,56.1,52.0,29.96,WSW,246,0.0,0.0,86,0.00,,,0.06,weatherlink.com 1.10,2013-06-19 00:12:00,
2013-06-18 20:27:00,56.2,52.0,29.96,WSW,246,0.0,0.0,86,0.00,,,0.06,weatherlink.com 1.10,2013-06-19 00:27:00,
2013-06-18 20:42:00,55.7,52.0,29.95,WSW,246,0.0,0.0,86,0.00,,,0.06,weatherlink.com 1.10,2013-06-19 00:42:00,
2013-06-18 20:57:00,55.5,52.0,29.95,WSW,246,0.0,0.0,87,0.00,,,0.06,weatherlink.com 1.10,2013-06-19 00:57:00,
2013-06-18 21:12:00,55.2,52.0,29.96,WSW,246,0.0,0.0,88,0.00,,,0.06,weatherlink.com 1.10,2013-06-19 01:12:00,
2013-06-18 21:27:00,54.9,52.0,29.96,WSW,246,0.0,0.0,89,0.00,,,0.06,weatherlink.com 1.10,2013-06-19 01:27:00,
2013-06-18 21:42:00,55.0,52.0,29.97,WSW,246,0.0,0.0,89,0.00,,,0.06,weatherlink.com 1.10,2013-06-19 01:42:00,
2013-06-18 21:57:00,55.1,52.0,29.97,WSW,246,0.0,0.0,89,0.00,,,0.06,weatherlink.com 1.10,2013-06-19 01:57:00,
2013-06-18 22:12:00,55.3,52.0,29.97,WSW,246,0.0,0.0,88,0.00,,,0.06,weatherlink.com 1.10,2013-06-19 02:12:00,
2013-06-18 22:27:00,55.6,52.0,29.97,WSW,246,0.0,0.0,87,0.00,,,0.06,weatherlink.com 1.10,2013-06-19 02:27:00,
2013-06-18 22:42:00,55.7,52.0,29.96,WSW,246,0.0,0.0,87,0.00,,,0.06,weatherlink.com 1.10,2013-06-19 02:42:00,
2013-06-18 22:57:00,55.4,52.0,29.96,WSW,246,0.0,0.0,88,0.00,,,0.06,weatherlink.com 1.10,2013-06-19 02:57:00,
2013-06-18 23:12:00,55.4,52.0,29.96,WSW,246,0.0,0.0,89,0.00,,,0.06,weatherlink.com 1.10,2013-06-19 03:12:00,
2013-06-18 23:27:00,56.0,53.0,29.96,WSW,246,0.0,1.0,88,0.00,,,0.06,weatherlink.com 1.10,2013-06-19 03:27:00,
2013-06-18 23:42:00,56.2,53.0,29.96,WSW,246,0.0,2.0,88,0.00,,,0.06,weatherlink.com 1.10,2013-06-19 03:42:00,
2013-06-18 23:57:00,56.4,53.0,29.97,WSW,246,0.0,1.0,88,0.00,,,0.06,weatherlink.com 1.10,2013-06-19 03:57:00,